Time;durP1;ratioP1;P1;durP2;ratioP2;P2;SDS_P1;SDS_P2;PMS_P1;PMS_P2;Temp;Humidity;BMP_temperature;BMP_pressure;BME280_temperature;BME280_humidity;BME280_pressure;Samples;Min_cycle;Max_cycle;Signal;HPM_P1;HPM_P2
2022/10/25 00:00:42;;;;;;;8.63;7.83;;;11.90;99.90;;;;;;5072401;28;20430;-53
2022/10/25 00:03:09;;;;;;;9.10;8.20;;;11.90;99.90;;;;;;5090226;28;20904;-50
2022/10/25 00:05:36;;;;;;;10.10;8.30;;;11.80;99.90;;;;;;5088465;28;20606;-52
2022/10/25 00:08:02;;;;;;;10.10;8.80;;;11.80;99.90;;;;;;5090242;28;20450;-55
2022/10/25 00:10:28;;;;;;;12.87;8.60;;;11.80;99.90;;;;;;5089993;28;20489;-50
2022/10/25 00:12:54;;;;;;;12.13;9.23;;;11.90;99.90;;;;;;5089343;28;20940;-50
2022/10/25 00:15:20;;;;;;;9.50;8.47;;;11.80;99.90;;;;;;5089106;28;20595;-50
2022/10/25 00:17:45;;;;;;;10.63;9.53;;;11.80;99.90;;;;;;5090569;28;20203;-50
2022/10/25 00:20:11;;;;;;;10.23;8.60;;;11.80;99.90;;;;;;5088507;28;20518;-50
2022/10/25 00:22:37;;;;;;;12.90;9.17;;;11.80;99.90;;;;;;5089268;28;20197;-49
2022/10/25 00:25:04;;;;;;;11.30;9.13;;;11.80;99.90;;;;;;5089599;28;20200;-52
2022/10/25 00:27:30;;;;;;;11.00;9.90;;;11.80;99.90;;;;;;5090571;28;20419;-50
2022/10/25 00:29:55;;;;;;;12.10;10.13;;;11.80;99.90;;;;;;5088026;28;20461;-50
2022/10/25 00:32:21;;;;;;;12.27;9.23;;;11.70;99.90;;;;;;5090290;28;20257;-53
2022/10/25 00:34:46;;;;;;;10.80;9.70;;;11.70;99.90;;;;;;5088573;28;20196;-49
2022/10/25 00:37:12;;;;;;;10.43;9.43;;;11.70;99.90;;;;;;5089918;28;20211;-51
2022/10/25 00:39:38;;;;;;;10.83;9.73;;;11.70;99.90;;;;;;5088918;28;20253;-50
2022/10/25 00:42:03;;;;;;;10.57;9.20;;;11.60;99.90;;;;;;5088688;28;20196;-50
2022/10/25 00:44:35;;;;;;;9.50;8.50;;;11.60;99.90;;;;;;5088440;28;20215;-51
2022/10/25 00:47:03;;;;;;;10.50;9.50;;;11.50;99.90;;;;;;5089661;28;20836;-51
2022/10/25 00:49:31;;;;;;;9.93;8.93;;;11.50;99.90;;;;;;5088566;28;20454;-50
2022/10/25 00:52:01;;;;;;;11.83;9.43;;;11.50;99.90;;;;;;5089570;28;20465;-53
2022/10/25 00:54:34;;;;;;;13.20;9.37;;;11.40;99.90;;;;;;5090096;28;20784;-50
2022/10/25 00:57:07;;;;;;;10.60;9.40;;;11.40;99.90;;;;;;5089145;28;20434;-51
2022/10/25 00:59:33;;;;;;;9.60;8.60;;;11.40;99.90;;;;;;5089125;28;20799;-47
2022/10/25 01:01:59;;;;;;;10.57;9.50;;;11.40;99.90;;;;;;5088111;28;20450;-52
2022/10/25 01:04:27;;;;;;;11.30;9.10;;;11.40;99.90;;;;;;5089783;28;20184;-50
2022/10/25 01:06:53;;;;;;;13.97;9.77;;;11.40;99.90;;;;;;5088609;28;20830;-49
2022/10/25 01:09:22;;;;;;;11.53;9.63;;;11.40;99.90;;;;;;5089449;28;20450;-51
2022/10/25 01:11:48;;;;;;;10.73;9.40;;;11.40;99.90;;;;;;5088031;28;20918;-48
2022/10/25 01:14:15;;;;;;;11.77;9.37;;;11.40;99.90;;;;;;5089344;28;20450;-50
2022/10/25 01:17:25;;;;;;;12.17;8.47;;;11.40;99.90;;;;;;5088154;28;20948;-47
2022/10/25 01:19:54;;;;;;;11.00;9.20;;;11.40;99.90;;;;;;5088262;28;20457;-49
2022/10/25 01:22:26;;;;;;;10.40;9.30;;;11.40;99.90;;;;;;5089349;28;20453;-48
2022/10/25 01:25:05;;;;;;;10.03;8.93;;;11.40;99.90;;;;;;5088677;28;20438;-48
2022/10/25 01:27:53;;;;;;;11.50;10.10;;;11.40;99.90;;;;;;5088558;28;21275;-49
2022/10/25 01:30:29;;;;;;;12.77;8.43;;;11.40;99.90;;;;;;5083534;28;20442;-54
2022/10/25 01:33:29;;;;;;;11.63;8.50;;;11.40;99.90;;;;;;5087580;28;20434;-54
2022/10/25 01:36:13;;;;;;;11.73;8.57;;;11.50;99.90;;;;;;5089391;28;20426;-51
2022/10/25 01:38:48;;;;;;;8.93;7.97;;;11.50;99.90;;;;;;5069393;28;20438;-50
2022/10/25 01:41:27;;;;;;;8.80;7.53;;;11.50;99.90;;;;;;5076747;28;20438;-48
2022/10/25 01:44:03;;;;;;;10.27;8.97;;;11.50;99.90;;;;;;5087702;28;20430;-51
2022/10/25 01:46:44;;;;;;;8.80;7.90;;;11.50;99.90;;;;;;5088857;28;20643;-49
2022/10/25 01:49:17;;;;;;;8.10;7.13;;;11.50;99.90;;;;;;5081933;28;20474;-48
2022/10/25 01:51:42;;;;;;;9.57;7.80;;;11.50;99.90;;;;;;5088790;28;20829;-51
2022/10/25 01:54:24;;;;;;;9.63;7.77;;;11.50;99.90;;;;;;5087655;28;20916;-51
2022/10/25 01:57:05;;;;;;;10.00;7.90;;;11.50;99.90;;;;;;5087386;28;20200;-50
2022/10/25 01:59:42;;;;;;;9.80;8.20;;;11.40;99.90;;;;;;5087955;28;20468;-51
2022/10/25 02:02:29;;;;;;;8.50;7.60;;;11.40;99.90;;;;;;5088117;28;20476;-49
2022/10/25 02:05:28;;;;;;;8.63;7.60;;;11.40;99.90;;;;;;5088549;28;20425;-48
2022/10/25 02:08:03;;;;;;;10.23;7.80;;;11.40;99.90;;;;;;5088245;28;20443;-47
2022/10/25 02:10:47;;;;;;;12.43;8.30;;;11.30;99.90;;;;;;5085797;28;20461;-50
2022/10/25 02:13:26;;;;;;;9.37;7.30;;;11.30;99.90;;;;;;5085952;28;20524;-49
2022/10/25 02:15:58;;;;;;;8.30;7.40;;;11.20;99.90;;;;;;5069697;28;20430;-48
2022/10/25 02:18:29;;;;;;;8.63;7.37;;;11.20;99.90;;;;;;5086537;28;20958;-49
2022/10/25 02:20:57;;;;;;;12.27;7.90;;;11.20;99.90;;;;;;5069678;28;20441;-50
2022/10/25 02:23:25;;;;;;;11.63;7.57;;;11.30;99.90;;;;;;5087863;28;20446;-50
2022/10/25 02:25:52;;;;;;;8.07;7.27;;;11.30;99.90;;;;;;5087190;28;20972;-48
2022/10/25 02:28:19;;;;;;;9.43;7.67;;;11.30;99.90;;;;;;5087964;28;20414;-48
2022/10/25 02:30:44;;;;;;;9.10;7.00;;;11.30;99.90;;;;;;5087282;28;20465;-48
2022/10/25 02:33:11;;;;;;;9.10;7.77;;;11.30;99.90;;;;;;5088481;28;20423;-49
2022/10/25 02:35:37;;;;;;;9.50;7.00;;;11.30;99.90;;;;;;5087639;28;20235;-49
2022/10/25 02:38:03;;;;;;;10.33;7.40;;;11.30;99.90;;;;;;5087543;28;20480;-52
2022/10/25 02:40:29;;;;;;;10.50;8.10;;;11.30;99.90;;;;;;5087336;28;20916;-48
2022/10/25 02:42:55;;;;;;;14.43;7.97;;;11.40;99.90;;;;;;5087661;28;20200;-53
2022/10/25 02:45:20;;;;;;;9.50;7.80;;;11.40;99.90;;;;;;5088203;28;20418;-50
2022/10/25 02:47:46;;;;;;;11.73;7.90;;;11.40;99.90;;;;;;5087856;28;20601;-48
2022/10/25 02:50:11;;;;;;;7.80;7.00;;;11.30;99.90;;;;;;5087817;28;20231;-51
2022/10/25 02:52:37;;;;;;;8.63;7.73;;;11.30;99.90;;;;;;5087615;28;20185;-47
2022/10/25 02:55:03;;;;;;;8.63;7.73;;;11.30;99.90;;;;;;5086723;28;20643;-51
2022/10/25 02:57:36;;;;;;;9.10;8.00;;;11.20;99.90;;;;;;5085427;28;20516;-50
2022/10/25 03:00:04;;;;;;;12.13;8.10;;;11.30;99.90;;;;;;5087568;28;20521;-50
2022/10/25 03:02:30;;;;;;;11.90;7.87;;;11.30;99.90;;;;;;5087465;28;20442;-50
2022/10/25 03:04:56;;;;;;;8.83;7.03;;;11.20;99.90;;;;;;5087933;28;22013;-52
2022/10/25 03:07:21;;;;;;;9.73;7.80;;;11.20;99.90;;;;;;5090960;28;20315;-49
2022/10/25 03:09:47;;;;;;;9.73;7.37;;;11.20;99.90;;;;;;5091175;28;20196;-45
2022/10/25 03:12:12;;;;;;;8.50;6.80;;;11.20;99.90;;;;;;5091058;28;20255;-51
2022/10/25 03:14:38;;;;;;;8.20;7.40;;;11.30;99.90;;;;;;5090252;28;20635;-48
2022/10/25 03:17:05;;;;;;;8.13;6.90;;;11.30;99.90;;;;;;5091771;28;20184;-48
2022/10/25 03:19:30;;;;;;;8.57;7.10;;;11.40;99.90;;;;;;5090856;28;20189;-49
2022/10/25 03:21:56;;;;;;;9.60;6.83;;;11.50;99.90;;;;;;5090885;28;21005;-50
2022/10/25 03:24:21;;;;;;;8.43;7.50;;;11.50;99.90;;;;;;5090781;28;20228;-49
2022/10/25 03:26:47;;;;;;;7.80;7.10;;;11.60;99.90;;;;;;5090850;28;20682;-48
2022/10/25 03:29:12;;;;;;;8.10;6.50;;;11.70;99.90;;;;;;5090722;28;20727;-50
2022/10/25 03:31:38;;;;;;;9.23;7.13;;;11.70;99.90;;;;;;5090867;28;20716;-48
2022/10/25 03:34:04;;;;;;;8.03;6.60;;;11.70;99.90;;;;;;5090657;28;20188;-47
2022/10/25 03:36:30;;;;;;;9.07;7.33;;;11.70;99.90;;;;;;5090759;28;20563;-51
2022/10/25 03:38:55;;;;;;;8.40;6.63;;;11.80;99.90;;;;;;5090886;28;20669;-51
2022/10/25 03:41:21;;;;;;;9.33;7.43;;;11.70;99.90;;;;;;5091087;28;20639;-51
2022/10/25 03:43:46;;;;;;;8.40;7.10;;;11.70;99.90;;;;;;5090919;28;20204;-51
2022/10/25 03:46:12;;;;;;;9.37;7.80;;;11.60;99.90;;;;;;5090610;28;20203;-50
2022/10/25 03:48:37;;;;;;;8.47;6.90;;;11.60;99.90;;;;;;5090018;28;20192;-53
2022/10/25 03:51:03;;;;;;;8.70;7.87;;;11.50;99.90;;;;;;5091047;28;20212;-47
2022/10/25 03:53:29;;;;;;;8.10;7.23;;;11.50;99.90;;;;;;5089519;28;20567;-49
2022/10/25 03:55:54;;;;;;;7.97;6.70;;;11.50;99.90;;;;;;5091474;28;20185;-49
2022/10/25 03:58:20;;;;;;;11.87;6.87;;;11.40;99.90;;;;;;5088892;28;20193;-49
2022/10/25 04:00:45;;;;;;;8.87;6.43;;;11.40;99.90;;;;;;5091378;28;20196;-52
2022/10/25 04:03:11;;;;;;;8.93;6.80;;;11.30;99.90;;;;;;5088601;28;20196;-51
2022/10/25 04:05:37;;;;;;;9.40;6.83;;;11.30;99.90;;;;;;5089215;28;20197;-51
2022/10/25 04:08:02;;;;;;;10.60;6.77;;;11.30;99.90;;;;;;5090161;28;20197;-51
2022/10/25 04:10:28;;;;;;;8.90;6.70;;;11.30;99.90;;;;;;5090047;28;21062;-57
2022/10/25 04:12:54;;;;;;;8.93;6.40;;;11.30;99.90;;;;;;5090574;28;20184;-50
2022/10/25 04:15:19;;;;;;;8.90;7.50;;;11.30;99.90;;;;;;5088943;28;20261;-52
2022/10/25 04:17:48;;;;;;;8.13;7.20;;;11.30;99.90;;;;;;5088503;28;20647;-47
2022/10/25 04:20:14;;;;;;;7.83;6.40;;;11.30;99.90;;;;;;5089706;28;20517;-51
2022/10/25 04:22:39;;;;;;;7.40;5.47;;;11.50;99.90;;;;;;5089868;28;20468;-53
2022/10/25 04:25:05;;;;;;;9.60;6.03;;;11.60;99.90;;;;;;5089561;28;20189;-53
2022/10/25 04:27:31;;;;;;;9.10;5.50;;;11.80;99.90;;;;;;5089353;28;20192;-53
2022/10/25 04:29:56;;;;;;;9.27;5.13;;;12.00;99.90;;;;;;5088793;28;20439;-48
2022/10/25 04:32:22;;;;;;;5.20;4.70;;;12.10;99.90;;;;;;5090703;28;20212;-47
2022/10/25 04:34:48;;;;;;;7.53;4.23;;;12.20;99.90;;;;;;5089526;28;20211;-48
2022/10/25 04:37:13;;;;;;;6.40;4.90;;;12.40;99.90;;;;;;5090374;28;20559;-52
2022/10/25 04:39:39;;;;;;;5.20;4.23;;;12.60;99.90;;;;;;5087924;28;20207;-53
2022/10/25 04:42:04;;;;;;;6.53;4.00;;;12.70;99.90;;;;;;5089602;28;20572;-49
2022/10/25 04:44:30;;;;;;;4.00;3.40;;;13.10;99.90;;;;;;5090063;28;20192;-52
2022/10/25 04:46:55;;;;;;;4.83;3.60;;;13.20;99.90;;;;;;5083607;28;20202;-49
2022/10/25 04:49:21;;;;;;;4.90;3.30;;;13.40;99.90;;;;;;5088986;28;20228;-55
2022/10/25 04:51:46;;;;;;;3.33;3.03;;;13.50;99.90;;;;;;5088032;28;20218;-53
2022/10/25 04:54:12;;;;;;;6.00;3.27;;;13.70;99.90;;;;;;5089077;28;20195;-53
2022/10/25 04:56:38;;;;;;;5.13;3.10;;;13.80;99.90;;;;;;5083609;28;20183;-54
2022/10/25 04:59:04;;;;;;;4.60;3.50;;;13.90;99.90;;;;;;5088726;28;20248;-50
2022/10/25 05:01:29;;;;;;;10.30;4.73;;;13.90;99.90;;;;;;5088638;28;20545;-54
2022/10/25 05:03:55;;;;;;;7.03;3.40;;;13.90;99.90;;;;;;5087842;28;20227;-50
2022/10/25 05:06:27;;;;;;;5.30;4.47;;;13.80;99.90;;;;;;5088536;28;20720;-51
2022/10/25 05:08:54;;;;;;;7.73;4.50;;;13.80;99.90;;;;;;5089654;28;20586;-53
2022/10/25 05:11:21;;;;;;;5.40;3.90;;;13.60;99.90;;;;;;5088084;28;20458;-50
2022/10/25 05:13:47;;;;;;;4.50;3.00;;;13.50;99.90;;;;;;5087837;28;20448;-53
2022/10/25 05:16:22;;;;;;;8.83;3.43;;;13.50;99.90;;;;;;5088896;28;20476;-49
2022/10/25 05:18:53;;;;;;;3.13;2.83;;;13.50;99.90;;;;;;5088650;28;20542;-53
2022/10/25 05:21:20;;;;;;;6.57;3.50;;;13.50;99.90;;;;;;5086350;28;20457;-52
2022/10/25 05:23:46;;;;;;;4.57;3.03;;;13.50;99.90;;;;;;5085126;28;20771;-48
2022/10/25 05:26:17;;;;;;;5.33;3.67;;;13.60;99.90;;;;;;5080581;28;20460;-52
2022/10/25 05:28:44;;;;;;;4.47;3.60;;;13.60;99.90;;;;;;5078141;28;20198;-52
2022/10/25 05:31:16;;;;;;;9.23;5.60;;;13.50;99.90;;;;;;5080204;28;20555;-52
2022/10/25 05:33:43;;;;;;;6.33;4.57;;;13.30;99.90;;;;;;5079147;28;20962;-54
2022/10/25 05:36:10;;;;;;;5.70;5.07;;;13.20;99.90;;;;;;5080311;28;20427;-49
2022/10/25 05:38:35;;;;;;;6.47;4.50;;;13.10;99.90;;;;;;5080004;28;20504;-53
2022/10/25 05:41:01;;;;;;;5.93;5.03;;;13.00;99.90;;;;;;5078500;28;20440;-51
2022/10/25 05:43:26;;;;;;;11.20;7.20;;;13.00;99.90;;;;;;5061377;28;20207;-49
2022/10/25 05:46:07;;;;;;;4.63;3.93;;;12.90;99.90;;;;;;5079111;28;20277;-54
2022/10/25 05:48:34;;;;;;;5.37;4.87;;;12.90;99.90;;;;;;5079274;28;20414;-50
2022/10/25 05:51:17;;;;;;;4.23;3.17;;;12.80;99.90;;;;;;5069670;28;20469;-52
2022/10/25 05:54:03;;;;;;;4.23;3.80;;;12.80;99.90;;;;;;5085208;28;20502;-53
2022/10/25 05:56:30;;;;;;;3.70;3.40;;;12.80;99.90;;;;;;5088124;28;20949;-52
2022/10/25 05:58:56;;;;;;;6.93;3.40;;;12.80;99.90;;;;;;5088628;28;20960;-53
2022/10/25 06:01:23;;;;;;;6.23;3.90;;;12.90;99.90;;;;;;5088247;28;20440;-50
2022/10/25 06:03:50;;;;;;;5.83;4.23;;;12.90;99.90;;;;;;5088618;28;20774;-54
2022/10/25 06:06:16;;;;;;;4.87;4.00;;;12.90;99.90;;;;;;5087499;28;20503;-47
2022/10/25 06:08:41;;;;;;;4.53;4.03;;;13.00;99.90;;;;;;5087852;28;20425;-52
2022/10/25 06:11:12;;;;;;;6.40;5.03;;;13.00;99.90;;;;;;5086802;28;20466;-52
2022/10/25 06:13:39;;;;;;;4.20;2.97;;;12.90;99.90;;;;;;5087716;28;20197;-53
2022/10/25 06:16:09;;;;;;;5.30;4.17;;;12.90;99.90;;;;;;5088410;28;20421;-50
2022/10/25 06:18:39;;;;;;;4.17;3.43;;;12.90;99.90;;;;;;5087229;28;20436;-53
2022/10/25 06:21:13;;;;;;;4.50;3.53;;;12.80;99.90;;;;;;5088732;28;20492;-50
2022/10/25 06:23:40;;;;;;;3.87;2.80;;;12.80;99.90;;;;;;5088456;28;20428;-49
2022/10/25 06:26:11;;;;;;;3.70;3.40;;;12.90;99.90;;;;;;5088618;28;20520;-53
2022/10/25 06:28:37;;;;;;;4.60;3.23;;;12.90;99.90;;;;;;5088346;28;20931;-50
2022/10/25 06:31:05;;;;;;;4.43;3.57;;;12.90;99.90;;;;;;5088384;28;20972;-51
2022/10/25 06:33:31;;;;;;;5.40;3.33;;;12.90;99.90;;;;;;5088420;28;20427;-53
2022/10/25 06:35:58;;;;;;;3.90;2.97;;;13.00;99.90;;;;;;5088179;28;20423;-52
2022/10/25 06:38:24;;;;;;;3.30;2.90;;;13.20;99.90;;;;;;5088432;28;20449;-51
2022/10/25 06:40:49;;;;;;;4.13;3.73;;;13.30;99.90;;;;;;5090031;28;20457;-49
2022/10/25 06:43:15;;;;;;;5.00;3.47;;;13.50;99.90;;;;;;5092475;28;20191;-52
2022/10/25 06:45:41;;;;;;;3.20;2.90;;;13.70;99.90;;;;;;5090028;28;20192;-50
2022/10/25 06:48:07;;;;;;;4.37;3.00;;;13.80;99.90;;;;;;5083563;28;20197;-48
2022/10/25 06:50:32;;;;;;;3.23;2.90;;;13.90;99.90;;;;;;5069315;28;20450;-49
2022/10/25 06:52:58;;;;;;;3.30;2.57;;;14.00;99.90;;;;;;5092240;28;20192;-52
2022/10/25 06:55:23;;;;;;;3.37;2.80;;;14.10;99.90;;;;;;5092202;28;20192;-52
2022/10/25 06:57:50;;;;;;;3.20;2.90;;;14.20;99.90;;;;;;5086203;28;20196;-54
2022/10/25 07:00:16;;;;;;;4.87;3.20;;;14.30;99.90;;;;;;5092033;28;20180;-53
2022/10/25 07:02:41;;;;;;;3.33;3.03;;;14.30;99.90;;;;;;5091990;28;20421;-51
2022/10/25 07:05:07;;;;;;;3.00;2.70;;;14.40;99.90;;;;;;5092069;28;20204;-48
2022/10/25 07:07:33;;;;;;;3.37;2.90;;;14.50;99.90;;;;;;5091818;28;20232;-49
2022/10/25 07:09:58;;;;;;;5.40;2.83;;;14.60;99.90;;;;;;5092104;28;20484;-45
2022/10/25 07:12:24;;;;;;;4.80;3.07;;;14.70;99.90;;;;;;5091947;28;20232;-52
2022/10/25 07:14:49;;;;;;;6.70;2.60;;;14.80;99.90;;;;;;5091768;28;20181;-50
2022/10/25 07:17:15;;;;;;;5.60;2.60;;;15.00;99.90;;;;;;5090515;28;20301;-50
2022/10/25 07:19:40;;;;;;;4.10;2.70;;;15.20;99.90;;;;;;5091789;28;20226;-51
2022/10/25 07:22:06;;;;;;;4.00;2.80;;;15.40;99.90;;;;;;5091722;28;20190;-49
2022/10/25 07:24:31;;;;;;;2.60;2.40;;;15.60;99.90;;;;;;5092052;28;20196;-50
2022/10/25 07:26:57;;;;;;;5.33;3.20;;;15.80;99.90;;;;;;5091938;28;20241;-52
2022/10/25 07:29:23;;;;;;;2.93;2.40;;;15.80;99.90;;;;;;5091732;28;20205;-51
2022/10/25 07:31:48;;;;;;;4.67;2.80;;;15.90;99.90;;;;;;5091457;28;20295;-53
2022/10/25 07:34:14;;;;;;;2.90;2.57;;;16.00;99.90;;;;;;5090233;28;20188;-50
2022/10/25 07:36:40;;;;;;;3.00;2.50;;;16.10;99.90;;;;;;5091409;28;20221;-53
2022/10/25 07:39:06;;;;;;;5.33;2.80;;;16.10;99.90;;;;;;5091420;28;20932;-52
2022/10/25 07:41:31;;;;;;;2.93;2.67;;;16.00;99.90;;;;;;5073074;28;20421;-55
2022/10/25 07:43:57;;;;;;;4.97;3.13;;;16.10;99.90;;;;;;5091429;28;20184;-49
2022/10/25 07:46:23;;;;;;;3.53;2.70;;;16.10;99.90;;;;;;5089652;28;20187;-49
2022/10/25 07:48:48;;;;;;;6.63;3.20;;;16.10;99.90;;;;;;5091318;28;20338;-44
2022/10/25 07:51:15;;;;;;;3.10;2.40;;;16.10;99.90;;;;;;5090667;28;20488;-54
2022/10/25 07:53:41;;;;;;;3.13;2.83;;;16.20;99.90;;;;;;5091202;28;20270;-52
2022/10/25 07:56:19;;;;;;;3.83;3.37;;;16.30;99.90;;;;;;5071964;28;20583;-51
2022/10/25 07:58:45;;;;;;;5.13;3.17;;;16.40;99.90;;;;;;5089136;28;20180;-51
2022/10/25 08:01:11;;;;;;;3.53;2.80;;;16.40;99.90;;;;;;5072205;28;20952;-49
2022/10/25 08:03:37;;;;;;;4.20;3.20;;;16.50;99.90;;;;;;5091209;28;20200;-51
2022/10/25 08:06:03;;;;;;;5.80;3.80;;;16.70;99.90;;;;;;5090597;28;20469;-52
2022/10/25 08:08:29;;;;;;;3.17;2.87;;;17.40;99.90;;;;;;5091023;28;20231;-52
2022/10/25 08:10:55;;;;;;;3.83;3.20;;;18.00;99.90;;;;;;5090664;28;20520;-51
2022/10/25 08:13:23;;;;;;;3.93;2.90;;;18.80;99.90;;;;;;5091030;28;20948;-51
2022/10/25 08:15:53;;;;;;;4.67;2.57;;;19.60;99.90;;;;;;5090543;28;20683;-49
2022/10/25 08:18:20;;;;;;;3.30;2.57;;;20.40;98.80;;;;;;5089419;28;20525;-51
2022/10/25 08:20:45;;;;;;;3.30;2.33;;;20.90;95.20;;;;;;5090596;28;20423;-52
2022/10/25 08:23:11;;;;;;;3.53;2.50;;;20.80;93.20;;;;;;5090578;28;20962;-54
2022/10/25 08:25:36;;;;;;;4.07;2.77;;;20.80;92.70;;;;;;5090431;28;20223;-52
2022/10/25 08:28:02;;;;;;;3.07;2.57;;;21.20;92.80;;;;;;5090378;28;20203;-53
2022/10/25 08:30:27;;;;;;;2.80;2.60;;;21.60;91.30;;;;;;5090881;28;20250;-52
2022/10/25 08:32:53;;;;;;;5.17;2.30;;;21.70;89.60;;;;;;5090389;28;20212;-53
2022/10/25 08:35:19;;;;;;;3.27;2.97;;;21.40;88.40;;;;;;5090193;28;20191;-52
2022/10/25 08:37:44;;;;;;;2.53;2.33;;;21.40;88.50;;;;;;5090444;28;20246;-55
2022/10/25 08:40:51;;;;;;;3.30;2.67;;;21.40;88.10;;;;;;5090239;28;20192;-49
2022/10/25 08:43:27;;;;;;;3.57;2.40;;;21.50;86.60;;;;;;5062540;28;20207;-49
2022/10/25 08:46:01;;;;;;;3.80;2.80;;;20.80;86.60;;;;;;5089020;28;20498;-51
2022/10/25 08:48:34;;;;;;;3.30;3.00;;;21.00;88.00;;;;;;5089656;28;20418;-50
2022/10/25 08:51:24;;;;;;;2.77;2.57;;;21.20;86.80;;;;;;5059132;28;20552;-51
2022/10/25 08:53:54;;;;;;;3.20;2.40;;;21.20;86.40;;;;;;5060787;28;20414;-51
2022/10/25 08:56:21;;;;;;;2.90;2.60;;;21.40;86.80;;;;;;5089663;28;20466;-49
2022/10/25 08:59:00;;;;;;;2.80;2.60;;;21.70;85.90;;;;;;5089805;28;20457;-52
2022/10/25 09:01:35;;;;;;;3.00;2.80;;;22.10;82.20;;;;;;5089322;28;20449;-51
2022/10/25 09:04:00;;;;;;;2.70;2.23;;;22.40;80.20;;;;;;5088948;28;20426;-52
2022/10/25 09:06:38;;;;;;;2.33;2.17;;;22.40;81.30;;;;;;5071059;28;20835;-50
2022/10/25 09:09:33;;;;;;;3.63;2.80;;;22.50;77.40;;;;;;5089884;28;20192;-54
2022/10/25 09:12:14;;;;;;;3.23;2.93;;;22.30;78.50;;;;;;5089575;28;20458;-53
2022/10/25 09:15:04;;;;;;;3.37;2.60;;;22.50;77.40;;;;;;5076322;28;20814;-47
2022/10/25 09:17:42;;;;;;;4.23;2.73;;;22.90;74.40;;;;;;5087055;28;20997;-47
2022/10/25 09:20:20;;;;;;;3.33;2.60;;;23.20;74.20;;;;;;5070976;28;20426;-46
2022/10/25 09:22:57;;;;;;;3.80;2.90;;;23.60;72.20;;;;;;5089465;28;20419;-48
2022/10/25 09:25:35;;;;;;;3.43;3.20;;;23.20;70.60;;;;;;5089397;28;20433;-46
2022/10/25 09:28:07;;;;;;;3.40;3.10;;;22.90;72.60;;;;;;5089318;28;20427;-51
2022/10/25 09:30:40;;;;;;;6.60;3.10;;;23.00;71.80;;;;;;5089142;28;20783;-44
2022/10/25 09:33:12;;;;;;;3.80;3.50;;;23.30;72.10;;;;;;5088001;28;20470;-49
2022/10/25 09:35:45;;;;;;;3.50;3.20;;;23.40;68.80;;;;;;5088511;28;20763;-46
2022/10/25 09:38:21;;;;;;;4.27;3.87;;;23.20;68.80;;;;;;5089115;28;20501;-48
2022/10/25 09:41:13;;;;;;;7.50;3.63;;;22.90;71.90;;;;;;5070763;28;20522;-51
2022/10/25 09:43:49;;;;;;;3.57;3.10;;;22.80;71.10;;;;;;5089098;28;20510;-45
2022/10/25 09:46:30;;;;;;;3.00;2.80;;;22.70;71.50;;;;;;5089312;28;20965;-45
2022/10/25 09:49:36;;;;;;;5.03;3.23;;;22.50;69.90;;;;;;5088801;28;20450;-46
2022/10/25 09:52:20;;;;;;;3.33;3.03;;;22.30;71.90;;;;;;5053162;28;20470;-48
2022/10/25 09:54:54;;;;;;;2.97;2.77;;;22.20;72.50;;;;;;5082028;28;20419;-44
2022/10/25 09:57:19;;;;;;;3.77;3.50;;;21.90;73.40;;;;;;5088806;28;20816;-47
2022/10/25 09:59:49;;;;;;;5.10;3.40;;;21.40;76.00;;;;;;5087648;28;20438;-48
2022/10/25 10:02:20;;;;;;;4.30;3.30;;;21.00;79.90;;;;;;5088731;28;20275;-48
2022/10/25 10:04:46;;;;;;;4.70;4.30;;;20.70;82.70;;;;;;5088452;28;20842;-42
2022/10/25 10:07:27;;;;;;;4.33;4.03;;;20.30;82.60;;;;;;5088482;28;20501;-43
2022/10/25 10:09:56;;;;;;;4.30;3.70;;;19.80;87.20;;;;;;5088777;28;20553;-42
2022/10/25 10:12:35;;;;;;;4.80;4.20;;;19.50;90.00;;;;;;5088331;28;20471;-46
2022/10/25 10:15:08;;;;;;;3.83;3.53;;;19.40;90.50;;;;;;5088230;28;20417;-45
2022/10/25 10:17:33;;;;;;;5.40;3.57;;;19.20;91.70;;;;;;5086874;28;20874;-52
2022/10/25 10:20:09;;;;;;;3.60;3.30;;;19.20;92.30;;;;;;5087432;28;20434;-50
2022/10/25 10:22:42;;;;;;;3.60;3.30;;;19.10;92.70;;;;;;5088878;28;20279;-46
2022/10/25 10:25:15;;;;;;;3.43;3.23;;;19.10;93.30;;;;;;5088992;28;20417;-53
2022/10/25 10:27:41;;;;;;;3.60;3.40;;;19.10;93.50;;;;;;5088537;28;20453;-48
2022/10/25 10:30:08;;;;;;;5.43;3.77;;;18.90;93.90;;;;;;5087285;28;20999;-54
2022/10/25 10:32:39;;;;;;;3.80;3.50;;;18.80;94.10;;;;;;5087718;28;20204;-47
2022/10/25 10:35:07;;;;;;;3.93;3.63;;;18.80;94.00;;;;;;5088293;28;20418;-54
2022/10/25 10:37:33;;;;;;;3.87;3.57;;;18.60;95.70;;;;;;5088108;28;20427;-49
2022/10/25 10:40:20;;;;;;;4.67;3.73;;;18.50;95.70;;;;;;5088296;28;20428;-50
2022/10/25 10:42:46;;;;;;;3.53;3.33;;;18.40;96.40;;;;;;5088300;28;20483;-50
2022/10/25 10:45:15;;;;;;;3.60;3.30;;;18.40;96.60;;;;;;5088543;28;20429;-49
2022/10/25 10:47:50;;;;;;;4.70;3.20;;;18.40;96.60;;;;;;5088080;28;20415;-48
2022/10/25 10:50:21;;;;;;;4.60;3.90;;;18.70;95.90;;;;;;5088447;28;20453;-53
2022/10/25 10:53:21;;;;;;;3.50;3.20;;;18.60;96.30;;;;;;5088161;28;20545;-50
2022/10/25 10:55:53;;;;;;;4.90;3.47;;;18.70;95.90;;;;;;5081520;28;20431;-51
2022/10/25 10:58:28;;;;;;;3.80;3.50;;;18.80;96.50;;;;;;5086820;28;20412;-53
2022/10/25 11:01:05;;;;;;;5.80;3.80;;;18.80;95.60;;;;;;5088374;28;20426;-50
2022/10/25 11:03:40;;;;;;;3.60;3.30;;;18.90;96.60;;;;;;5087567;28;20711;-53
2022/10/25 11:06:06;;;;;;;5.70;3.30;;;19.10;95.50;;;;;;5087872;28;20879;-53
2022/10/25 11:08:32;;;;;;;3.93;3.63;;;19.20;95.90;;;;;;5088260;28;20428;-48
2022/10/25 11:11:20;;;;;;;3.73;3.40;;;19.40;95.00;;;;;;5088449;28;20793;-52
2022/10/25 11:13:59;;;;;;;3.83;3.53;;;19.80;94.00;;;;;;5088515;28;20204;-51
2022/10/25 11:16:28;;;;;;;3.80;3.23;;;20.30;92.60;;;;;;5088073;28;20448;-51
2022/10/25 11:19:07;;;;;;;5.17;3.27;;;20.40;90.80;;;;;;5087717;28;20420;-50
2022/10/25 11:22:07;;;;;;;3.80;3.60;;;20.50;91.00;;;;;;5087894;28;20483;-50
2022/10/25 11:24:45;;;;;;;3.87;3.57;;;20.30;90.60;;;;;;5076032;28;20414;-50
2022/10/25 11:27:29;;;;;;;3.93;3.63;;;20.30;91.30;;;;;;5090052;28;20760;-52
2022/10/25 11:30:18;;;;;;;3.57;3.27;;;20.40;90.60;;;;;;5090504;28;21139;-50
2022/10/25 11:33:05;;;;;;;4.00;3.40;;;20.90;90.10;;;;;;5090040;28;20462;-50
2022/10/25 11:35:43;;;;;;;3.67;3.33;;;21.70;85.80;;;;;;5091192;28;20417;-51
2022/10/25 11:38:48;;;;;;;3.77;3.43;;;22.20;80.50;;;;;;5091329;28;20524;-52
2022/10/25 11:41:26;;;;;;;3.77;3.47;;;21.50;81.60;;;;;;5091388;28;20536;-51
2022/10/25 11:44:01;;;;;;;3.40;3.10;;;21.70;82.60;;;;;;5091342;28;20824;-52
2022/10/25 11:46:42;;;;;;;2.93;2.73;;;22.00;80.20;;;;;;5089792;28;20480;-55
2022/10/25 11:49:26;;;;;;;3.30;2.90;;;22.70;77.40;;;;;;5091636;28;20426;-53
2022/10/25 11:52:22;;;;;;;5.43;3.57;;;23.20;73.80;;;;;;5090865;28;20458;-54
2022/10/25 11:54:57;;;;;;;3.50;3.20;;;22.60;70.50;;;;;;5090981;28;20646;-49
2022/10/25 11:57:38;;;;;;;4.40;3.47;;;22.10;74.30;;;;;;5091148;28;20421;-52
2022/10/25 12:00:18;;;;;;;3.37;3.07;;;21.70;76.10;;;;;;5091142;28;20917;-50
2022/10/25 12:03:11;;;;;;;3.13;2.83;;;21.60;76.80;;;;;;5090849;28;20776;-49
2022/10/25 12:05:47;;;;;;;3.43;3.23;;;21.90;73.70;;;;;;5090715;28;20414;-56
2022/10/25 12:08:37;;;;;;;3.20;3.00;;;22.50;72.30;;;;;;5090836;28;20455;-56
2022/10/25 12:11:13;;;;;;;5.53;3.20;;;23.00;70.10;;;;;;5090685;28;20552;-56
2022/10/25 12:13:44;;;;;;;3.40;3.00;;;23.40;65.90;;;;;;5090313;28;20449;-49
2022/10/25 12:16:14;;;;;;;3.30;3.10;;;23.30;64.90;;;;;;5076857;28;20438;-51
2022/10/25 12:18:55;;;;;;;3.77;3.47;;;22.80;65.50;;;;;;5090573;28;20415;-55
2022/10/25 12:21:29;;;;;;;3.57;3.37;;;22.20;69.00;;;;;;5091123;28;20428;-52
2022/10/25 12:23:55;;;;;;;4.50;3.40;;;22.20;72.70;;;;;;5090801;28;20548;-52
2022/10/25 12:26:35;;;;;;;4.10;3.80;;;21.70;71.80;;;;;;5090550;28;20968;-51
2022/10/25 12:29:10;;;;;;;4.47;3.50;;;21.20;73.00;;;;;;5090519;28;20669;-53
2022/10/25 12:31:41;;;;;;;3.60;3.33;;;21.70;73.20;;;;;;5090356;28;20466;-47
2022/10/25 12:34:40;;;;;;;4.07;2.90;;;22.10;71.60;;;;;;5090317;28;20505;-53
2022/10/25 12:37:17;;;;;;;3.50;3.20;;;22.50;68.30;;;;;;5071779;28;20503;-52
2022/10/25 12:39:45;;;;;;;3.80;3.50;;;22.80;66.70;;;;;;5089566;28;20919;-53
2022/10/25 12:42:19;;;;;;;4.30;3.43;;;23.00;66.60;;;;;;5090149;28;20843;-50
2022/10/25 12:45:23;;;;;;;3.13;2.93;;;23.10;65.50;;;;;;5089041;28;20928;-55
2022/10/25 12:48:09;;;;;;;3.97;3.77;;;22.80;65.30;;;;;;5089518;28;20446;-51
2022/10/25 12:50:38;;;;;;;3.50;3.30;;;22.30;67.70;;;;;;5089858;28;20426;-47
2022/10/25 12:53:09;;;;;;;4.13;3.63;;;22.10;67.50;;;;;;5089879;28;20439;-52
2022/10/25 12:55:41;;;;;;;3.87;3.50;;;22.10;67.70;;;;;;5088693;28;20909;-54
2022/10/25 12:58:31;;;;;;;3.80;3.50;;;22.30;67.60;;;;;;5090042;28;20908;-47
2022/10/25 13:01:34;;;;;;;3.90;3.60;;;21.90;68.10;;;;;;5089708;28;20407;-47
2022/10/25 13:04:21;;;;;;;4.40;4.07;;;21.80;69.10;;;;;;5007413;28;20927;-53
2022/10/25 13:06:49;;;;;;;4.70;4.30;;;21.70;69.40;;;;;;5084464;28;20478;-52